createdAt,value
2022-10-23T00:01:20.634Z,99773.59
2022-10-23T00:03:48.129Z,99775.47
2022-10-23T00:06:16.162Z,99769.31
2022-10-23T00:08:43.393Z,99774.50
2022-10-23T00:11:12.685Z,99760.47
2022-10-23T00:13:39.588Z,99758.22
2022-10-23T00:16:07.172Z,99756.91
2022-10-23T00:18:34.029Z,99761.91
2022-10-23T00:21:00.927Z,99754.41
2022-10-23T00:23:27.691Z,99761.03
2022-10-23T00:25:54.262Z,99753.50
2022-10-23T00:28:21.060Z,99751.31
2022-10-23T00:30:47.648Z,99746.72
2022-10-23T00:33:14.203Z,99751.78
2022-10-23T00:35:41.819Z,99750.91
2022-10-23T00:38:09.770Z,99748.63
2022-10-23T00:40:37.756Z,99753.78
2022-10-23T00:43:04.891Z,99745.69
2022-10-23T00:45:33.448Z,99750.28
2022-10-23T00:48:01.871Z,99757.72
2022-10-23T00:50:31.610Z,99746.47
2022-10-23T00:53:01.545Z,99746.75
2022-10-23T00:55:29.374Z,99748.41
2022-10-23T00:57:56.465Z,99754.28
2022-10-23T01:00:41.646Z,99763.28
2022-10-23T01:03:08.186Z,99774.00
2022-10-23T01:08:38.633Z,99776.28
2022-10-23T01:11:14.965Z,99774.22
2022-10-23T01:13:52.563Z,99769.75
2022-10-23T01:17:01.425Z,99768.75
2022-10-23T01:19:46.506Z,99767.81
2022-10-23T01:22:38.022Z,99774.66
2022-10-23T01:25:46.098Z,99779.03
2022-10-23T01:28:21.671Z,99773.03
2022-10-23T01:30:48.852Z,99774.31
2022-10-23T01:33:21.986Z,99775.19
2022-10-23T01:36:06.117Z,99773.22
2022-10-23T01:38:50.499Z,99773.41
2022-10-23T01:41:24.358Z,99778.38
2022-10-23T01:44:06.187Z,99762.41
2022-10-23T01:46:35.523Z,99762.19
2022-10-23T01:49:03.827Z,99773.91
2022-10-23T01:51:32.224Z,99773.91
2022-10-23T01:54:00.852Z,99772.00
2022-10-23T01:56:32.817Z,99781.53
2022-10-23T01:59:03.689Z,99780.41
2022-10-23T02:01:33.119Z,99776.06
2022-10-23T02:04:03.199Z,99787.38
2022-10-23T02:06:29.793Z,99782.88
2022-10-23T02:08:56.658Z,99771.44
2022-10-23T02:11:23.228Z,99776.03
2022-10-23T02:14:03.793Z,99775.41
2022-10-23T02:16:50.397Z,99766.03
2022-10-23T02:19:41.954Z,99763.53
2022-10-23T02:22:38.375Z,99760.88
2022-10-23T02:25:16.778Z,99760.00
2022-10-23T02:27:50.666Z,99770.31
2022-10-23T02:30:19.187Z,99766.75
2022-10-23T02:32:49.146Z,99766.53
2022-10-23T02:35:17.657Z,99765.84
2022-10-23T02:37:44.632Z,99759.25
2022-10-23T02:40:11.903Z,99763.38
2022-10-23T02:42:49.670Z,99758.88
2022-10-23T02:45:29.411Z,99759.00
2022-10-23T02:48:17.183Z,99754.28
2022-10-23T02:51:05.182Z,99750.72
2022-10-23T02:54:03.610Z,99749.34
2022-10-23T02:56:56.214Z,99748.69
2022-10-23T02:59:32.292Z,99753.84
2022-10-23T03:02:07.674Z,99754.06
2022-10-23T03:04:37.227Z,99755.09
2022-10-23T03:07:03.809Z,99765.78
2022-10-23T03:09:31.461Z,99768.69
2022-10-23T03:11:57.959Z,99767.72
2022-10-23T03:14:24.677Z,99771.69
2022-10-23T03:16:51.211Z,99766.41
2022-10-23T03:19:17.699Z,99772.63
2022-10-23T03:21:44.215Z,99773.22
2022-10-23T03:24:10.781Z,99773.31
2022-10-23T03:26:37.293Z,99771.34
2022-10-23T03:29:03.808Z,99771.66
2022-10-23T03:31:30.303Z,99772.56
2022-10-23T03:33:56.839Z,99776.81
2022-10-23T03:36:23.457Z,99777.13
2022-10-23T03:38:49.944Z,99784.59
2022-10-23T03:41:16.505Z,99775.25
2022-10-23T03:43:43.044Z,99782.06
2022-10-23T03:46:12.696Z,99780.44
2022-10-23T03:48:39.345Z,99769.25
2022-10-23T03:51:06.340Z,99780.50
2022-10-23T03:53:32.884Z,99766.53
2022-10-23T03:55:59.455Z,99765.06
2022-10-23T03:58:25.987Z,99771.16
2022-10-23T04:00:52.642Z,99773.34
2022-10-23T04:03:19.166Z,99768.53
2022-10-23T04:05:45.673Z,99769.00
2022-10-23T04:08:15.230Z,99772.53
2022-10-23T04:10:44.223Z,99768.31
2022-10-23T04:13:10.762Z,99775.88
2022-10-23T04:15:37.276Z,99781.72
2022-10-23T04:18:04.298Z,99781.44
2022-10-23T04:20:31.581Z,99776.97
2022-10-23T04:22:58.120Z,99789.94
2022-10-23T04:25:24.631Z,99792.34
2022-10-23T04:27:51.124Z,99794.81
2022-10-23T04:30:17.717Z,99792.00
2022-10-23T04:32:44.224Z,99797.03
2022-10-23T04:35:10.735Z,99790.16
2022-10-23T04:37:37.261Z,99775.66
2022-10-23T04:40:04.004Z,99774.47
2022-10-23T04:42:31.540Z,99773.38
2022-10-23T04:44:58.081Z,99772.50
2022-10-23T04:47:25.099Z,99774.56
2022-10-23T04:49:51.644Z,99763.81
2022-10-23T04:52:18.253Z,99761.22
2022-10-23T04:54:44.759Z,99750.38
2022-10-23T04:57:11.305Z,99749.50
2022-10-23T04:59:37.792Z,99756.38
2022-10-23T05:02:04.451Z,99756.84
2022-10-23T05:04:31.169Z,99757.84
2022-10-23T05:06:57.761Z,99760.94
2022-10-23T05:09:25.867Z,99763.41
2022-10-23T05:11:52.351Z,99759.00
2022-10-23T05:14:22.083Z,99763.47
2022-10-23T05:16:59.476Z,99772.72
2022-10-23T05:19:33.419Z,99767.75
2022-10-23T05:22:00.696Z,99766.41
2022-10-23T05:24:27.213Z,99761.16
2022-10-23T05:26:54.133Z,99768.97
2022-10-23T05:29:21.541Z,99773.66
2022-10-23T05:31:57.524Z,99777.25
2022-10-23T05:34:26.421Z,99764.53
2022-10-23T05:36:53.695Z,99767.78
2022-10-23T05:39:20.785Z,99759.13
2022-10-23T05:41:47.314Z,99762.75
2022-10-23T05:44:13.807Z,99764.00
2022-10-23T05:46:42.163Z,99768.66
2022-10-23T05:49:08.780Z,99775.63
2022-10-23T05:51:40.353Z,99774.38
2022-10-23T05:54:10.568Z,99768.09
2022-10-23T05:56:38.985Z,99766.34
2022-10-23T05:59:08.017Z,99767.00
2022-10-23T06:01:36.458Z,99764.84
2022-10-23T06:04:04.639Z,99771.78
2022-10-23T06:06:32.624Z,99764.50
2022-10-23T06:08:59.123Z,99766.59
2022-10-23T06:11:25.707Z,99773.34
2022-10-23T06:13:52.350Z,99787.03
2022-10-23T06:16:21.131Z,99796.84
2022-10-23T06:18:48.110Z,99806.38
2022-10-23T06:21:15.540Z,99814.34
2022-10-23T06:23:43.828Z,99806.28
2022-10-23T06:26:12.543Z,99807.56
2022-10-23T06:28:39.443Z,99809.16
2022-10-23T06:31:07.200Z,99806.88
2022-10-23T06:33:34.044Z,99798.47
2022-10-23T06:36:00.536Z,99804.78
2022-10-23T06:38:27.023Z,99809.22
2022-10-23T06:40:55.343Z,99814.50
2022-10-23T06:43:22.144Z,99823.06
2022-10-23T06:45:49.057Z,99820.00
2022-10-23T06:48:15.992Z,99822.47
2022-10-23T06:50:42.735Z,99817.13
2022-10-23T06:53:09.699Z,99821.00
2022-10-23T06:58:10.812Z,99822.25
2022-10-23T07:00:40.421Z,99828.34
2022-10-23T07:03:09.071Z,99821.38
2022-10-23T07:05:36.248Z,99819.75
2022-10-23T07:08:05.190Z,99817.63
2022-10-23T07:10:31.710Z,99812.91
2022-10-23T07:13:00.924Z,99808.41
2022-10-23T07:15:27.954Z,99804.38
2022-10-23T07:17:54.501Z,99805.16
2022-10-23T07:20:21.271Z,99807.41
2022-10-23T07:22:55.516Z,99807.53
2022-10-23T07:25:26.683Z,99805.75
2022-10-23T07:27:55.375Z,99806.22
2022-10-23T07:30:22.163Z,99801.13
2022-10-23T07:32:49.022Z,99797.91
2022-10-23T07:35:16.038Z,99802.75
2022-10-23T07:37:42.820Z,99805.22
2022-10-23T07:40:09.957Z,99811.31
2022-10-23T07:42:36.469Z,99822.22
2022-10-23T07:45:04.438Z,99833.91
2022-10-23T07:47:32.571Z,99831.72
2022-10-23T07:49:59.467Z,99830.59
2022-10-23T07:52:30.818Z,99836.16
2022-10-23T07:55:00.110Z,99831.25
2022-10-23T07:57:26.810Z,99836.41
2022-10-23T07:59:54.594Z,99824.19
2022-10-23T08:02:21.221Z,99823.22
2022-10-23T08:04:51.092Z,99824.75
2022-10-23T08:07:17.710Z,99819.28
2022-10-23T08:09:44.245Z,99820.66
2022-10-23T08:12:11.158Z,99813.84
2022-10-23T08:14:37.822Z,99803.44
2022-10-23T08:17:05.336Z,99813.75
2022-10-23T08:19:32.265Z,99803.81
2022-10-23T08:21:58.786Z,99792.22
2022-10-23T08:24:25.369Z,99784.94
2022-10-23T08:26:51.868Z,99785.88
2022-10-23T08:29:20.750Z,99791.09
2022-10-23T08:31:47.290Z,99790.06
2022-10-23T08:34:14.203Z,99792.28
2022-10-23T08:36:40.776Z,99798.41
2022-10-23T08:39:07.686Z,99799.63
2022-10-23T08:41:40.671Z,99802.63
2022-10-23T08:44:17.167Z,99793.44
2022-10-23T08:46:49.971Z,99809.63
2022-10-23T08:49:38.035Z,99813.91
2022-10-23T08:52:26.286Z,99808.69
2022-10-23T08:55:34.486Z,99812.56
2022-10-23T08:58:03.563Z,99810.56
2022-10-23T09:00:31.422Z,99806.66
2022-10-23T09:03:02.006Z,99798.72
2022-10-23T09:05:37.092Z,99791.84
2022-10-23T09:08:36.964Z,99782.84
2022-10-23T09:11:11.521Z,99785.53
2022-10-23T09:14:03.388Z,99781.00
2022-10-23T09:16:38.676Z,99782.13
2022-10-23T09:19:14.802Z,99778.19
2022-10-23T09:21:41.732Z,99768.28
2022-10-23T09:24:17.883Z,99769.56
2022-10-23T09:26:49.711Z,99767.13
2022-10-23T09:29:36.514Z,99765.03
2022-10-23T09:32:07.250Z,99761.03
2022-10-23T09:34:34.944Z,99756.69
2022-10-23T09:37:23.166Z,99756.50
2022-10-23T09:40:00.721Z,99758.28
2022-10-23T09:42:27.248Z,99761.75
2022-10-23T09:44:55.196Z,99755.25
2022-10-23T09:47:24.414Z,99742.56
2022-10-23T09:49:53.683Z,99748.19
2022-10-23T09:52:28.835Z,99740.41
2022-10-23T09:55:15.607Z,99744.50
2022-10-23T09:57:44.286Z,99749.44
2022-10-23T10:00:23.620Z,99752.41
2022-10-23T10:03:04.854Z,99746.78
2022-10-23T10:05:36.851Z,99752.50
2022-10-23T10:08:10.596Z,99750.44
2022-10-23T10:10:41.603Z,99756.16
2022-10-23T10:13:32.527Z,99744.47
2022-10-23T10:16:07.704Z,99749.28
2022-10-23T10:18:47.330Z,99746.47
2022-10-23T10:21:55.864Z,99748.81
2022-10-23T10:24:55.962Z,99742.66
2022-10-23T10:27:56.662Z,99733.28
2022-10-23T10:30:25.012Z,99739.59
2022-10-23T10:33:06.219Z,99732.50
2022-10-23T10:36:11.765Z,99729.84
2022-10-23T10:38:47.475Z,99724.97
2022-10-23T10:41:16.459Z,99724.53
2022-10-23T10:43:59.258Z,99725.34
2022-10-23T10:46:34.734Z,99721.44
2022-10-23T10:49:04.195Z,99715.72
2022-10-23T10:51:43.060Z,99704.09
2022-10-23T10:54:30.089Z,99698.22
2022-10-23T10:56:59.777Z,99703.53
2022-10-23T10:59:31.305Z,99701.34
2022-10-23T11:02:31.576Z,99695.41
2022-10-23T11:05:11.003Z,99691.66
2022-10-23T11:07:42.892Z,99677.53
2022-10-23T11:10:17.153Z,99675.66
2022-10-23T11:12:46.459Z,99675.13
2022-10-23T11:15:40.533Z,99678.59
2022-10-23T11:18:16.904Z,99678.13
2022-10-23T11:20:46.594Z,99670.03
2022-10-23T11:23:35.653Z,99668.41
2022-10-23T11:26:35.475Z,99665.31
2022-10-23T11:29:23.779Z,99658.94
2022-10-23T11:32:11.517Z,99654.19
2022-10-23T11:34:48.501Z,99652.66
2022-10-23T11:37:19.549Z,99645.88
2022-10-23T11:40:07.109Z,99647.44
2022-10-23T11:42:39.760Z,99641.53
2022-10-23T11:45:39.917Z,99640.31
2022-10-23T11:48:15.164Z,99638.66
2022-10-23T11:50:44.886Z,99625.78
2022-10-23T11:53:39.705Z,99619.25
2022-10-23T11:56:12.433Z,99616.91
2022-10-23T11:58:49.660Z,99612.91
2022-10-23T12:01:30.386Z,99609.16
2022-10-23T12:04:14.263Z,99604.53
2022-10-23T12:07:02.939Z,99609.00
2022-10-23T12:09:41.563Z,99595.22
2022-10-23T12:12:08.000Z,99580.34
2022-10-23T12:14:38.239Z,99584.91
2022-10-23T12:17:22.957Z,99581.19
2022-10-23T12:20:03.510Z,99574.44
2022-10-23T12:22:42.721Z,99570.16
2022-10-23T12:25:15.642Z,99566.84
2022-10-23T12:27:51.464Z,99565.44
2022-10-23T12:30:35.630Z,99573.06
2022-10-23T12:33:18.461Z,99560.94
2022-10-23T12:36:06.434Z,99557.84
2022-10-23T12:38:35.482Z,99550.81
2022-10-23T12:41:25.836Z,99552.44
2022-10-23T12:44:01.069Z,99546.56
2022-10-23T12:46:36.771Z,99539.88
2022-10-23T12:49:12.921Z,99531.56
2022-10-23T12:51:39.405Z,99528.41
2022-10-23T12:54:16.164Z,99519.69
2022-10-23T12:56:44.262Z,99515.69
2022-10-23T12:59:16.496Z,99526.03
2022-10-23T13:01:43.698Z,99524.41
2022-10-23T13:04:10.484Z,99521.25
2022-10-23T13:06:39.155Z,99529.16
2022-10-23T13:09:15.252Z,99521.16
2022-10-23T13:11:42.570Z,99517.63
2022-10-23T13:14:26.209Z,99516.44
2022-10-23T13:17:02.748Z,99511.31
2022-10-23T13:19:29.601Z,99512.56
2022-10-23T13:21:56.672Z,99505.00
2022-10-23T13:24:26.188Z,99504.22
2022-10-23T13:26:52.802Z,99508.19
2022-10-23T13:29:34.598Z,99505.41
2022-10-23T13:32:23.624Z,99499.47
2022-10-23T13:35:21.067Z,99503.44
2022-10-23T13:37:48.980Z,99505.78
2022-10-23T13:40:27.458Z,99497.88
2022-10-23T13:42:56.209Z,99491.16
2022-10-23T13:45:25.100Z,99487.56
2022-10-23T13:47:52.257Z,99485.19
2022-10-23T13:50:20.035Z,99480.84
2022-10-23T13:52:46.851Z,99470.09
2022-10-23T13:55:40.837Z,99467.69
2022-10-23T13:58:07.280Z,99475.22
2022-10-23T14:00:33.833Z,99471.66
2022-10-23T14:03:00.371Z,99471.25
2022-10-23T14:05:26.880Z,99473.13
2022-10-23T14:07:53.380Z,99478.66
2022-10-23T14:10:20.642Z,99500.75
2022-10-23T14:12:53.536Z,99497.91
2022-10-23T14:15:20.409Z,99502.94
2022-10-23T14:17:47.039Z,99503.66
2022-10-23T14:20:13.689Z,99504.38
2022-10-23T14:22:40.291Z,99484.50
2022-10-23T14:25:07.031Z,99472.88
2022-10-23T14:27:33.661Z,99466.44
2022-10-23T14:30:00.204Z,99477.88
2022-10-23T14:32:26.857Z,99476.97
2022-10-23T14:34:54.411Z,99481.28
2022-10-23T14:37:21.450Z,99482.03
2022-10-23T14:39:50.201Z,99492.75
2022-10-23T14:42:17.513Z,99493.56
2022-10-23T14:44:44.937Z,99497.53
2022-10-23T14:47:11.915Z,99490.41
2022-10-23T14:49:40.107Z,99481.69
2022-10-23T14:52:07.337Z,99486.47
2022-10-23T14:54:36.277Z,99480.19
2022-10-23T14:57:03.883Z,99487.34
2022-10-23T14:59:30.579Z,99489.75
2022-10-23T15:01:57.108Z,99487.78
2022-10-23T15:04:23.836Z,99481.41
2022-10-23T15:06:50.571Z,99476.59
2022-10-23T15:09:19.567Z,99473.75
2022-10-23T15:11:46.673Z,99481.19
2022-10-23T15:14:13.230Z,99479.22
2022-10-23T15:16:43.131Z,99476.78
2022-10-23T15:19:18.159Z,99475.94
2022-10-23T15:21:46.957Z,99477.06
2022-10-23T15:24:13.767Z,99474.63
2022-10-23T15:26:42.888Z,99468.97
2022-10-23T15:29:11.127Z,99465.28
2022-10-23T15:31:37.629Z,99458.47
2022-10-23T15:34:05.611Z,99448.94
2022-10-23T15:36:32.571Z,99464.22
2022-10-23T15:38:59.130Z,99463.41
2022-10-23T15:41:31.720Z,99459.41
2022-10-23T15:43:59.124Z,99466.44
2022-10-23T15:46:25.836Z,99467.56
2022-10-23T15:48:53.215Z,99471.03
2022-10-23T15:51:20.315Z,99471.00
2022-10-23T15:53:46.986Z,99467.00
2022-10-23T15:56:13.534Z,99460.16
2022-10-23T15:58:40.063Z,99474.31
2022-10-23T16:01:07.060Z,99471.47
2022-10-23T16:03:35.382Z,99468.31
2022-10-23T16:06:06.964Z,99469.44
2022-10-23T16:08:33.679Z,99476.50
2022-10-23T16:11:00.302Z,99469.69
2022-10-23T16:13:27.320Z,99473.56
2022-10-23T16:15:54.393Z,99478.28
2022-10-23T16:18:22.535Z,99483.41
2022-10-23T16:20:50.956Z,99469.91
2022-10-23T16:23:17.840Z,99474.94
2022-10-23T16:25:45.654Z,99465.41
2022-10-23T16:28:12.188Z,99463.06
2022-10-23T16:30:43.138Z,99470.13
2022-10-23T16:33:10.698Z,99472.81
2022-10-23T16:35:37.468Z,99475.53
2022-10-23T16:38:04.114Z,99472.38
2022-10-23T16:40:31.026Z,99478.72
2022-10-23T16:42:58.485Z,99486.69
2022-10-23T16:45:25.112Z,99478.00
2022-10-23T16:47:51.647Z,99484.72
2022-10-23T16:50:18.302Z,99483.91
2022-10-23T16:52:45.504Z,99481.22
2022-10-23T16:55:12.382Z,99484.41
2022-10-23T16:57:38.984Z,99483.19
2022-10-23T17:00:06.641Z,99485.53
2022-10-23T17:02:33.664Z,99478.34
2022-10-23T17:05:00.378Z,99479.09
2022-10-23T17:07:26.940Z,99478.22
2022-10-23T17:09:53.467Z,99482.16
2022-10-23T17:12:20.056Z,99492.75
2022-10-23T17:14:46.556Z,99485.97
2022-10-23T17:17:13.617Z,99488.66
2022-10-23T17:19:45.871Z,99483.56
2022-10-23T17:22:14.183Z,99492.16
2022-10-23T17:24:42.532Z,99490.16
2022-10-23T17:27:09.332Z,99490.06
2022-10-23T17:29:35.991Z,99485.34
2022-10-23T17:32:02.804Z,99496.75
2022-10-23T17:34:30.681Z,99492.41
2022-10-23T17:36:57.377Z,99486.16
2022-10-23T17:39:26.642Z,99494.78
2022-10-23T17:41:53.972Z,99494.66
2022-10-23T17:44:20.696Z,99494.66
2022-10-23T17:46:53.181Z,99503.31
2022-10-23T17:49:20.349Z,99503.03
2022-10-23T17:51:50.067Z,99504.28
2022-10-23T17:54:16.566Z,99503.63
2022-10-23T17:56:43.109Z,99498.97
2022-10-23T17:59:14.469Z,99493.56
2022-10-23T18:01:43.890Z,99491.53
2022-10-23T18:04:11.637Z,99493.06
2022-10-23T18:06:44.597Z,99497.00
2022-10-23T18:09:11.646Z,99499.03
2022-10-23T18:11:46.887Z,99503.44
2022-10-23T18:14:15.359Z,99496.00
2022-10-23T18:16:42.325Z,99499.56
2022-10-23T18:19:08.985Z,99496.06
2022-10-23T18:21:35.969Z,99486.25
2022-10-23T18:24:03.093Z,99480.34
2022-10-23T18:26:32.159Z,99481.22
2022-10-23T18:28:59.603Z,99479.63
2022-10-23T18:31:29.717Z,99480.34
2022-10-23T18:33:58.585Z,99471.38
2022-10-23T18:36:27.964Z,99466.66
2022-10-23T18:41:23.715Z,99474.31
2022-10-23T18:43:51.662Z,99477.13
2022-10-23T18:46:19.503Z,99481.13
2022-10-23T18:48:47.157Z,99483.88
2022-10-23T18:51:15.790Z,99485.41
2022-10-23T18:53:43.260Z,99478.25
2022-10-23T18:56:09.782Z,99474.59
2022-10-23T18:58:36.363Z,99469.00
2022-10-23T19:01:03.109Z,99465.00
2022-10-23T19:03:29.720Z,99454.34
2022-10-23T19:05:56.550Z,99469.72
2022-10-23T19:08:23.104Z,99470.22
2022-10-23T19:10:51.114Z,99460.41
2022-10-23T19:13:17.707Z,99451.72
2022-10-23T19:15:44.650Z,99448.19
2022-10-23T19:18:11.514Z,99454.03
2022-10-23T19:20:38.316Z,99462.63
2022-10-23T19:23:06.319Z,99457.13
2022-10-23T19:25:35.654Z,99460.28
2022-10-23T19:28:03.025Z,99465.09
2022-10-23T19:30:30.300Z,99460.28
2022-10-23T19:32:56.894Z,99458.28
2022-10-23T19:35:23.473Z,99462.22
2022-10-23T19:37:50.194Z,99474.84
2022-10-23T19:40:16.887Z,99465.75
2022-10-23T19:42:44.237Z,99459.78
2022-10-23T19:45:13.653Z,99448.47
2022-10-23T19:47:40.763Z,99446.84
2022-10-23T19:50:09.367Z,99453.16
2022-10-23T19:52:36.121Z,99458.38
2022-10-23T19:55:05.440Z,99452.53
2022-10-23T19:57:35.667Z,99436.34
2022-10-23T20:00:04.424Z,99433.13
2022-10-23T20:02:33.416Z,99435.06
2022-10-23T20:05:00.106Z,99438.56
2022-10-23T20:07:26.783Z,99450.03
2022-10-23T20:09:53.363Z,99452.44
2022-10-23T20:12:19.984Z,99464.38
2022-10-23T20:14:46.511Z,99463.56
2022-10-23T20:17:13.042Z,99454.06
2022-10-23T20:19:39.558Z,99454.13
2022-10-23T20:22:06.505Z,99453.69
2022-10-23T20:24:33.325Z,99458.78
2022-10-23T20:26:59.871Z,99458.00
2022-10-23T20:29:26.459Z,99451.56
2022-10-23T20:31:53.018Z,99443.59
2022-10-23T20:34:19.737Z,99444.78
2022-10-23T20:36:49.223Z,99450.72
2022-10-23T20:39:19.329Z,99445.94
2022-10-23T20:41:45.887Z,99450.72
2022-10-23T20:46:43.820Z,99459.53
2022-10-23T20:49:11.511Z,99464.69
2022-10-23T20:51:38.150Z,99457.50
2022-10-23T20:54:05.641Z,99445.69
2022-10-23T20:56:35.827Z,99438.63
2022-10-23T20:59:13.144Z,99427.28
2022-10-23T21:01:43.076Z,99427.22
2022-10-23T21:04:12.702Z,99419.63
2022-10-23T21:06:51.939Z,99422.31
2022-10-23T21:09:29.334Z,99434.97
2022-10-23T21:11:55.975Z,99439.78
2022-10-23T21:14:22.518Z,99440.59
2022-10-23T21:16:49.043Z,99442.97
2022-10-23T21:19:16.102Z,99450.81
2022-10-23T21:21:43.827Z,99443.84
2022-10-23T21:24:14.526Z,99443.06
2022-10-23T21:26:41.579Z,99445.41
2022-10-23T21:29:18.095Z,99426.47
2022-10-23T21:31:45.475Z,99417.00
2022-10-23T21:34:12.200Z,99425.19
2022-10-23T21:36:53.903Z,99431.88
2022-10-23T21:39:25.515Z,99434.69
2022-10-23T21:41:52.058Z,99433.72
2022-10-23T21:44:18.656Z,99426.31
2022-10-23T21:46:45.752Z,99435.00
2022-10-23T21:49:12.686Z,99429.66
2022-10-23T21:51:39.493Z,99427.31
2022-10-23T21:54:14.863Z,99431.31
2022-10-23T21:56:50.101Z,99446.31
2022-10-23T21:59:19.550Z,99444.69
2022-10-23T22:01:47.584Z,99433.53
2022-10-23T22:04:19.754Z,99431.09
2022-10-23T22:06:48.432Z,99422.25
2022-10-23T22:09:19.464Z,99424.47
2022-10-23T22:11:46.343Z,99428.84
2022-10-23T22:14:12.911Z,99425.00
2022-10-23T22:16:39.574Z,99421.50
2022-10-23T22:19:06.052Z,99423.13
2022-10-23T22:21:32.802Z,99415.19
2022-10-23T22:24:01.020Z,99420.38
2022-10-23T22:26:35.605Z,99397.06
2022-10-23T22:29:05.595Z,99412.41
2022-10-23T22:31:34.073Z,99420.19
2022-10-23T22:34:13.015Z,99426.00
2022-10-23T22:36:48.047Z,99425.28
2022-10-23T22:39:14.620Z,99411.25
2022-10-23T22:41:43.242Z,99421.03
2022-10-23T22:44:11.939Z,99417.50
2022-10-23T22:46:38.829Z,99416.66
2022-10-23T22:51:37.617Z,99404.78
2022-10-23T22:54:04.214Z,99401.16
2022-10-23T22:56:31.294Z,99397.25
2022-10-23T22:58:58.430Z,99407.56
2022-10-23T23:01:36.410Z,99419.84
2022-10-23T23:04:13.914Z,99426.56
2022-10-23T23:06:49.736Z,99422.25
2022-10-23T23:09:18.083Z,99419.63
2022-10-23T23:11:51.404Z,99411.41
2022-10-23T23:14:22.918Z,99413.72
2022-10-23T23:16:51.089Z,99410.13
2022-10-23T23:19:17.582Z,99417.09
2022-10-23T23:21:44.112Z,99426.16
2022-10-23T23:24:12.125Z,99417.09
2022-10-23T23:26:38.834Z,99413.22
2022-10-23T23:29:05.756Z,99406.06
2022-10-23T23:31:32.294Z,99396.63
2022-10-23T23:33:58.881Z,99393.56
2022-10-23T23:36:27.576Z,99396.31
2022-10-23T23:38:55.829Z,99398.66
2022-10-23T23:41:23.296Z,99398.28
2022-10-23T23:43:49.957Z,99394.00
2022-10-23T23:46:17.713Z,99398.34
2022-10-23T23:48:47.950Z,99388.03
2022-10-23T23:51:23.094Z,99386.03
2022-10-23T23:53:50.276Z,99393.19
2022-10-23T23:56:17.693Z,99388.19
2022-10-23T23:58:44.400Z,99385.84
